Time;durP1;ratioP1;P1;durP2;ratioP2;P2;SDS_P1;SDS_P2;PMS_P1;PMS_P2;Temp;Humidity;BMP_temperature;BMP_pressure;BME280_temperature;BME280_humidity;BME280_pressure;Samples;Min_cycle;Max_cycle;Signal;HPM_P1;HPM_P2
2022/03/05 00:00:49;;;;;;;1.80;1.70;;;3.60;99.90;;;;;;5072000;28;20424;-65
2022/03/05 00:03:17;;;;;;;2.20;2.10;;;3.60;99.90;;;;;;5072175;28;20210;-64
2022/03/05 00:05:44;;;;;;;2.08;1.98;;;3.60;99.90;;;;;;5072692;28;20297;-65
2022/03/05 00:08:11;;;;;;;2.10;2.00;;;3.60;99.90;;;;;;5074750;28;20716;-64
2022/03/05 00:10:39;;;;;;;2.38;2.28;;;3.60;99.90;;;;;;5076528;28;20689;-63
2022/03/05 00:13:06;;;;;;;2.10;2.00;;;3.50;99.90;;;;;;5072659;28;20258;-64
2022/03/05 00:15:33;;;;;;;2.20;2.10;;;3.50;99.90;;;;;;5072443;28;20636;-64
2022/03/05 00:18:01;;;;;;;2.10;2.00;;;3.50;99.90;;;;;;5071802;28;20322;-64
2022/03/05 00:20:28;;;;;;;2.50;2.40;;;3.50;99.90;;;;;;5072082;28;20207;-65
2022/03/05 00:22:55;;;;;;;1.90;1.80;;;3.40;99.90;;;;;;5071824;28;20290;-63
2022/03/05 00:25:24;;;;;;;2.10;2.00;;;3.40;99.90;;;;;;5072103;28;20329;-64
2022/03/05 00:27:51;;;;;;;2.17;2.08;;;3.30;99.90;;;;;;5071788;28;20630;-63
2022/03/05 00:30:18;;;;;;;2.03;1.92;;;3.30;99.90;;;;;;5072201;28;20200;-66
2022/03/05 00:32:45;;;;;;;2.57;2.47;;;3.20;99.90;;;;;;5071890;28;20318;-64
2022/03/05 00:35:14;;;;;;;2.08;1.98;;;3.20;99.90;;;;;;5072096;28;20242;-65
2022/03/05 00:37:41;;;;;;;2.20;2.10;;;3.20;99.90;;;;;;5072004;28;20223;-63
2022/03/05 00:40:09;;;;;;;1.92;1.83;;;3.20;99.90;;;;;;5071028;28;20207;-64
2022/03/05 00:42:36;;;;;;;2.28;2.17;;;3.20;99.90;;;;;;5070825;28;20199;-63
2022/03/05 00:45:05;;;;;;;2.10;2.00;;;3.20;99.90;;;;;;5071736;28;20254;-62
2022/03/05 00:47:32;;;;;;;2.00;1.90;;;3.20;99.90;;;;;;5072153;28;20299;-63
2022/03/05 00:49:59;;;;;;;2.40;2.30;;;3.20;99.90;;;;;;5072157;28;20290;-64
2022/03/05 00:52:27;;;;;;;2.20;2.10;;;3.20;99.90;;;;;;5071667;28;20310;-64
2022/03/05 00:54:54;;;;;;;2.00;1.90;;;3.10;99.90;;;;;;5071118;28;20214;-64
2022/03/05 00:57:21;;;;;;;2.58;2.38;;;3.10;99.90;;;;;;5071759;28;20219;-63
2022/03/05 00:59:48;;;;;;;2.20;2.10;;;3.10;99.90;;;;;;5070703;28;20307;-63
2022/03/05 01:02:15;;;;;;;2.33;2.23;;;3.10;99.90;;;;;;5070673;28;20707;-66
2022/03/05 01:04:42;;;;;;;2.20;2.10;;;3.00;99.90;;;;;;5070610;28;20213;-64
2022/03/05 01:07:09;;;;;;;2.10;2.00;;;3.00;99.90;;;;;;5071690;28;20243;-63
2022/03/05 01:09:37;;;;;;;2.13;2.03;;;3.00;99.90;;;;;;5070902;28;20269;-62
2022/03/05 01:12:05;;;;;;;2.30;2.20;;;3.00;99.90;;;;;;5070981;28;20306;-64
2022/03/05 01:14:31;;;;;;;2.00;1.90;;;2.90;99.90;;;;;;5071281;28;20595;-63
2022/03/05 01:16:58;;;;;;;2.17;2.08;;;2.90;99.90;;;;;;5071559;28;20672;-62
2022/03/05 01:19:25;;;;;;;2.15;2.05;;;2.90;99.90;;;;;;5046400;28;20269;-64
2022/03/05 01:21:52;;;;;;;2.00;1.90;;;2.90;99.90;;;;;;5047228;28;20208;-64
2022/03/05 01:24:19;;;;;;;2.08;1.98;;;2.90;99.90;;;;;;5049330;28;20211;-63
2022/03/05 01:26:47;;;;;;;2.28;2.17;;;2.90;99.90;;;;;;5050676;28;20311;-62
2022/03/05 01:29:14;;;;;;;2.35;2.25;;;2.90;99.90;;;;;;5049915;28;20212;-64
2022/03/05 01:31:41;;;;;;;2.30;2.20;;;2.90;99.90;;;;;;5050921;28;20310;-62
2022/03/05 01:34:08;;;;;;;2.30;2.20;;;2.80;99.90;;;;;;5050760;28;20306;-64
2022/03/05 01:36:35;;;;;;;2.30;2.20;;;2.80;99.90;;;;;;5049264;28;20216;-63
2022/03/05 01:39:02;;;;;;;2.50;2.40;;;2.70;99.90;;;;;;5054756;28;20214;-64
2022/03/05 01:41:29;;;;;;;2.10;2.00;;;2.70;99.90;;;;;;5064930;28;20255;-62
2022/03/05 01:43:58;;;;;;;2.40;2.30;;;2.70;99.90;;;;;;5050332;28;20204;-62
2022/03/05 01:46:30;;;;;;;2.30;2.20;;;2.70;99.90;;;;;;5050355;28;20290;-62
2022/03/05 01:48:56;;;;;;;2.38;2.28;;;2.60;99.90;;;;;;5050645;28;20290;-63
2022/03/05 01:51:23;;;;;;;2.17;2.08;;;2.60;99.90;;;;;;5051346;28;20286;-62
2022/03/05 01:53:50;;;;;;;2.40;2.30;;;2.60;99.90;;;;;;5050450;28;20319;-63
2022/03/05 01:56:18;;;;;;;2.30;2.20;;;2.60;99.90;;;;;;5055189;28;20246;-64
2022/03/05 01:58:45;;;;;;;2.05;1.95;;;2.60;99.90;;;;;;5050932;28;20400;-63
2022/03/05 02:01:13;;;;;;;2.03;1.92;;;2.60;99.90;;;;;;5050863;28;20222;-63
2022/03/05 02:03:42;;;;;;;2.30;2.20;;;2.60;99.90;;;;;;5051608;28;20269;-64
2022/03/05 02:06:10;;;;;;;2.47;2.37;;;2.60;99.90;;;;;;5052686;28;20204;-62
2022/03/05 02:08:37;;;;;;;2.47;2.17;;;2.60;99.90;;;;;;5052762;28;20212;-63
2022/03/05 02:11:04;;;;;;;2.38;2.28;;;2.60;99.90;;;;;;5051084;28;20214;-64
2022/03/05 02:13:31;;;;;;;1.98;1.88;;;2.50;99.90;;;;;;5050231;28;20310;-63
2022/03/05 02:15:58;;;;;;;2.22;2.13;;;2.50;99.90;;;;;;5050961;28;20652;-64
2022/03/05 02:18:26;;;;;;;2.20;2.10;;;2.50;99.90;;;;;;5054654;28;20417;-64
2022/03/05 02:20:55;;;;;;;2.30;2.20;;;2.40;99.90;;;;;;5060994;28;20291;-64
2022/03/05 02:23:23;;;;;;;2.40;2.30;;;2.40;99.90;;;;;;5058566;28;20196;-63
2022/03/05 02:25:54;;;;;;;2.40;2.30;;;2.40;99.90;;;;;;5054279;28;20824;-63
2022/03/05 02:28:21;;;;;;;2.20;2.10;;;2.40;99.90;;;;;;5050720;28;20631;-63
2022/03/05 02:30:49;;;;;;;2.40;2.30;;;2.40;99.90;;;;;;5045525;28;20208;-64
2022/03/05 02:33:16;;;;;;;2.10;2.00;;;2.30;99.90;;;;;;5045024;28;20251;-65
2022/03/05 02:35:44;;;;;;;2.38;2.28;;;2.30;99.90;;;;;;5051354;28;20606;-64
2022/03/05 02:38:14;;;;;;;2.38;2.28;;;2.30;99.90;;;;;;5050107;28;20597;-64
2022/03/05 02:40:41;;;;;;;2.25;2.15;;;2.20;99.90;;;;;;5051459;28;20215;-63
2022/03/05 02:43:09;;;;;;;2.22;2.13;;;2.20;99.90;;;;;;5053393;28;20214;-64
2022/03/05 02:45:37;;;;;;;2.40;2.30;;;2.20;99.90;;;;;;5053759;28;20644;-64
2022/03/05 02:48:07;;;;;;;2.60;2.50;;;2.10;99.90;;;;;;5054141;28;20318;-64
2022/03/05 02:50:34;;;;;;;2.58;2.38;;;2.10;99.90;;;;;;5054181;28;20295;-64
2022/03/05 02:53:01;;;;;;;2.72;2.53;;;2.20;99.90;;;;;;5053789;28;20220;-61
2022/03/05 02:55:30;;;;;;;2.50;2.40;;;2.10;99.90;;;;;;5053891;28;20300;-63
2022/03/05 02:57:57;;;;;;;2.47;2.38;;;2.10;99.90;;;;;;5054135;28;20311;-65
2022/03/05 03:00:24;;;;;;;2.50;2.40;;;2.10;99.90;;;;;;5052731;28;20214;-65
2022/03/05 03:02:52;;;;;;;2.60;2.50;;;2.10;99.90;;;;;;5053227;28;20658;-62
2022/03/05 03:05:19;;;;;;;2.40;2.30;;;2.10;99.90;;;;;;5052916;28;20246;-63
2022/03/05 03:07:46;;;;;;;2.47;2.38;;;2.00;99.90;;;;;;5053216;28;20232;-64
2022/03/05 03:10:15;;;;;;;2.93;2.73;;;2.00;99.90;;;;;;5047150;28;20289;-64
2022/03/05 03:12:43;;;;;;;2.63;2.42;;;2.00;99.90;;;;;;5045246;28;20260;-63
2022/03/05 03:15:13;;;;;;;2.10;2.00;;;2.10;99.90;;;;;;5041034;28;20205;-64
2022/03/05 03:17:41;;;;;;;2.33;2.22;;;2.10;99.90;;;;;;5040511;28;20224;-64
2022/03/05 03:20:09;;;;;;;2.53;2.42;;;2.10;99.90;;;;;;5047270;28;20266;-63
2022/03/05 03:22:36;;;;;;;2.42;2.33;;;2.00;99.90;;;;;;5052777;28;20708;-64
2022/03/05 03:25:04;;;;;;;2.35;2.25;;;2.00;99.90;;;;;;5045865;28;20562;-63
2022/03/05 03:27:31;;;;;;;2.35;2.25;;;2.00;99.90;;;;;;5052312;28;20665;-62
2022/03/05 03:30:00;;;;;;;2.10;2.00;;;1.90;99.90;;;;;;5052505;28;20200;-64
2022/03/05 03:32:26;;;;;;;2.30;2.20;;;1.90;99.90;;;;;;5052554;28;20291;-65
2022/03/05 03:34:53;;;;;;;2.35;2.25;;;1.90;99.90;;;;;;5052261;28;20266;-64
2022/03/05 03:37:20;;;;;;;2.42;2.33;;;1.90;99.90;;;;;;5046960;28;20311;-64
2022/03/05 03:39:47;;;;;;;2.10;2.00;;;1.80;99.90;;;;;;5050650;28;20258;-63
2022/03/05 03:42:14;;;;;;;2.20;2.10;;;1.80;99.90;;;;;;5052840;28;20208;-63
2022/03/05 03:44:42;;;;;;;2.20;2.10;;;1.80;99.90;;;;;;5052170;28;20210;-65
2022/03/05 03:47:10;;;;;;;2.17;2.08;;;1.80;99.90;;;;;;5052501;28;20239;-64
2022/03/05 03:49:37;;;;;;;2.10;2.00;;;1.80;99.90;;;;;;5052479;28;20250;-63
2022/03/05 03:52:04;;;;;;;2.85;2.65;;;1.80;99.90;;;;;;5052592;28;20291;-63
2022/03/05 03:54:31;;;;;;;2.13;2.03;;;1.70;99.90;;;;;;5052206;28;20228;-64
2022/03/05 03:56:58;;;;;;;2.33;2.22;;;1.70;99.90;;;;;;5052859;28;20227;-64
2022/03/05 03:59:25;;;;;;;2.20;2.10;;;1.60;99.90;;;;;;5052325;28;20234;-64
2022/03/05 04:01:52;;;;;;;2.40;2.30;;;1.60;99.90;;;;;;5051814;28;20236;-65
2022/03/05 04:04:20;;;;;;;2.10;2.00;;;1.60;99.90;;;;;;5051468;28;20662;-63
2022/03/05 04:09:32;;;;;;;2.40;2.30;;;1.50;99.90;;;;;;5052357;28;20285;-63
2022/03/05 04:11:58;;;;;;;2.10;2.00;;;1.50;99.90;;;;;;5052022;28;20200;-63
2022/03/05 04:14:25;;;;;;;2.17;2.08;;;1.50;99.90;;;;;;5052388;28;20318;-64
2022/03/05 04:16:52;;;;;;;2.28;2.17;;;1.50;99.90;;;;;;5052580;28;20234;-63
2022/03/05 04:19:20;;;;;;;1.98;1.88;;;1.50;99.90;;;;;;5052330;28;20302;-65
2022/03/05 04:21:47;;;;;;;2.10;2.00;;;1.50;99.90;;;;;;5052015;28;20214;-63
2022/03/05 04:24:14;;;;;;;1.90;1.80;;;1.50;99.90;;;;;;5052539;28;20696;-64
2022/03/05 04:26:41;;;;;;;2.30;2.20;;;1.50;99.90;;;;;;5052482;28;20768;-64
2022/03/05 04:29:08;;;;;;;2.30;2.20;;;1.40;99.90;;;;;;5053370;28;20239;-63
2022/03/05 04:31:35;;;;;;;2.55;2.45;;;1.50;99.90;;;;;;5052826;28;20214;-63
2022/03/05 04:34:02;;;;;;;2.30;2.20;;;1.40;99.90;;;;;;5051809;28;20228;-63
2022/03/05 04:36:30;;;;;;;2.40;2.30;;;1.40;99.90;;;;;;5051392;28;20642;-63
2022/03/05 04:38:57;;;;;;;2.22;2.10;;;1.50;99.90;;;;;;5051521;28;20580;-64
2022/03/05 04:41:24;;;;;;;2.22;2.10;;;1.50;99.90;;;;;;5051068;28;20729;-63
2022/03/05 04:43:50;;;;;;;2.03;1.92;;;1.50;99.90;;;;;;5051046;28;20375;-64
2022/03/05 04:46:17;;;;;;;2.00;1.90;;;1.50;99.90;;;;;;5050918;28;20641;-64
2022/03/05 04:48:44;;;;;;;1.98;1.88;;;1.50;99.90;;;;;;5050868;28;20400;-63
2022/03/05 04:51:11;;;;;;;2.00;1.90;;;1.50;99.90;;;;;;5051677;28;20280;-63
2022/03/05 04:53:39;;;;;;;2.00;1.90;;;1.50;99.90;;;;;;5050766;28;20251;-62
2022/03/05 04:56:06;;;;;;;2.17;2.08;;;1.50;99.90;;;;;;5051538;28;20310;-66
2022/03/05 04:58:33;;;;;;;2.00;1.90;;;1.50;99.90;;;;;;5051296;28;20227;-64
2022/03/05 05:01:01;;;;;;;1.95;1.85;;;1.60;99.90;;;;;;5062695;28;20275;-63
2022/03/05 05:03:28;;;;;;;1.90;1.80;;;1.70;99.90;;;;;;5069138;28;20199;-63
2022/03/05 05:05:56;;;;;;;2.20;2.10;;;1.60;99.90;;;;;;5068744;28;20254;-64
2022/03/05 05:08:22;;;;;;;2.10;2.00;;;1.70;99.90;;;;;;5067691;28;20232;-64
2022/03/05 05:10:51;;;;;;;2.03;1.93;;;1.60;99.90;;;;;;5067975;28;20204;-63
2022/03/05 05:13:17;;;;;;;2.08;1.98;;;1.60;99.90;;;;;;5054675;28;20251;-64
2022/03/05 05:15:46;;;;;;;2.40;2.30;;;1.50;99.90;;;;;;5051354;28;20291;-63
2022/03/05 05:18:13;;;;;;;2.10;2.00;;;1.50;99.90;;;;;;5051237;28;20219;-64
2022/03/05 05:20:39;;;;;;;2.20;2.10;;;1.40;99.90;;;;;;5050850;28;20678;-63
2022/03/05 05:23:06;;;;;;;2.35;2.25;;;1.30;99.90;;;;;;5050488;28;20204;-64
2022/03/05 05:25:33;;;;;;;2.08;1.98;;;1.20;99.90;;;;;;5050531;28;20551;-64
2022/03/05 05:28:01;;;;;;;2.00;1.90;;;1.20;99.90;;;;;;5056108;28;20300;-65
2022/03/05 05:30:28;;;;;;;2.03;1.92;;;1.10;99.90;;;;;;5062637;28;20845;-65
2022/03/05 05:32:55;;;;;;;2.10;2.00;;;1.10;99.90;;;;;;5061407;28;20232;-62
2022/03/05 05:35:22;;;;;;;2.28;2.17;;;1.10;99.90;;;;;;5058512;28;20315;-63
2022/03/05 05:37:49;;;;;;;2.20;2.10;;;1.00;99.90;;;;;;5055353;28;20311;-64
2022/03/05 05:40:16;;;;;;;2.20;2.10;;;0.90;99.90;;;;;;5059134;28;20267;-65
2022/03/05 05:42:43;;;;;;;2.10;2.00;;;0.90;99.90;;;;;;5052003;28;20315;-63
2022/03/05 05:45:11;;;;;;;2.20;2.10;;;0.80;99.90;;;;;;5049978;28;20207;-63
2022/03/05 05:47:39;;;;;;;2.20;2.10;;;0.80;99.90;;;;;;5050466;28;20219;-63
2022/03/05 05:50:07;;;;;;;1.90;1.80;;;0.80;99.90;;;;;;5051658;28;20298;-64
2022/03/05 05:52:34;;;;;;;2.10;2.00;;;0.80;99.90;;;;;;5051862;28;20206;-64
2022/03/05 05:55:01;;;;;;;1.95;1.85;;;0.80;99.90;;;;;;5051265;28;20230;-65
2022/03/05 05:57:28;;;;;;;1.95;1.85;;;0.90;99.90;;;;;;5050879;28;20238;-64
2022/03/05 05:59:55;;;;;;;2.70;2.50;;;0.90;99.90;;;;;;5050503;28;20211;-64
2022/03/05 06:02:24;;;;;;;2.03;1.93;;;0.90;99.90;;;;;;5050118;28;20203;-64
2022/03/05 06:04:51;;;;;;;2.15;2.05;;;0.90;99.90;;;;;;5049798;28;20835;-64
2022/03/05 06:07:18;;;;;;;1.73;1.63;;;0.90;99.90;;;;;;5050389;28;20270;-65
2022/03/05 06:09:44;;;;;;;1.65;1.55;;;1.00;99.90;;;;;;5050279;28;20234;-63
2022/03/05 06:12:11;;;;;;;1.70;1.60;;;1.00;99.90;;;;;;5050524;28;20748;-65
2022/03/05 06:14:38;;;;;;;2.00;1.90;;;1.00;99.90;;;;;;5050365;28;20242;-64
2022/03/05 06:17:05;;;;;;;1.80;1.70;;;1.00;99.90;;;;;;5054220;28;20314;-64
2022/03/05 06:19:33;;;;;;;1.52;1.50;;;1.10;99.90;;;;;;5055092;28;20290;-64
2022/03/05 06:22:00;;;;;;;1.90;1.80;;;1.10;99.90;;;;;;5056238;28;20586;-64
2022/03/05 06:24:28;;;;;;;1.90;1.80;;;1.10;99.90;;;;;;5055653;28;20200;-63
2022/03/05 06:26:55;;;;;;;1.70;1.60;;;1.10;99.90;;;;;;5054261;28;20281;-65
2022/03/05 06:29:22;;;;;;;1.73;1.63;;;1.20;99.90;;;;;;5054183;28;20242;-64
2022/03/05 06:31:49;;;;;;;1.67;1.58;;;1.30;99.90;;;;;;5053952;28;20291;-63
2022/03/05 06:34:16;;;;;;;1.70;1.60;;;1.40;99.90;;;;;;5054272;28;20282;-62
2022/03/05 06:36:44;;;;;;;1.90;1.80;;;1.50;99.90;;;;;;5054075;28;20706;-63
2022/03/05 06:39:11;;;;;;;1.88;1.77;;;1.60;99.90;;;;;;5054353;28;20298;-63
2022/03/05 06:41:38;;;;;;;1.70;1.60;;;1.50;99.90;;;;;;5053530;28;20216;-65
2022/03/05 06:44:06;;;;;;;1.90;1.80;;;1.60;99.90;;;;;;5053195;28;20242;-63
2022/03/05 06:46:37;;;;;;;1.65;1.60;;;1.60;99.90;;;;;;5053232;28;20310;-65
2022/03/05 06:49:06;;;;;;;1.70;1.60;;;1.60;99.90;;;;;;5053539;28;20208;-63
2022/03/05 06:51:47;;;;;;;1.75;1.65;;;1.60;99.90;;;;;;5053573;28;20204;-64
2022/03/05 06:54:16;;;;;;;1.92;1.83;;;1.70;99.90;;;;;;5053624;28;20231;-63
2022/03/05 06:56:47;;;;;;;2.10;1.73;;;1.70;99.90;;;;;;5053339;28;20710;-63
2022/03/05 06:59:19;;;;;;;1.95;1.85;;;1.70;99.90;;;;;;5053619;28;20254;-64
2022/03/05 07:01:46;;;;;;;1.88;1.77;;;1.70;99.90;;;;;;5053697;28;20214;-64
2022/03/05 07:04:16;;;;;;;1.80;1.70;;;1.70;99.90;;;;;;5053264;28;20200;-63
2022/03/05 07:06:45;;;;;;;1.65;1.55;;;1.70;99.90;;;;;;5052867;28;20601;-63
2022/03/05 07:09:14;;;;;;;1.80;1.70;;;1.70;99.90;;;;;;5058867;28;20184;-63
2022/03/05 07:11:45;;;;;;;2.03;1.92;;;1.80;99.90;;;;;;5061785;28;20200;-64
2022/03/05 07:14:13;;;;;;;2.40;2.30;;;1.80;99.90;;;;;;5060136;28;20224;-63
2022/03/05 07:16:46;;;;;;;2.07;1.97;;;1.70;99.90;;;;;;5056012;28;20259;-64
2022/03/05 07:19:13;;;;;;;2.00;1.90;;;1.70;99.90;;;;;;5054039;28;20606;-64
2022/03/05 07:21:41;;;;;;;1.88;1.77;;;1.70;99.90;;;;;;5053176;28;20211;-64
2022/03/05 07:24:09;;;;;;;2.40;2.30;;;1.80;99.90;;;;;;5053702;28;20208;-64
2022/03/05 07:26:37;;;;;;;2.58;2.38;;;1.90;99.90;;;;;;5054402;28;20220;-63
2022/03/05 07:29:06;;;;;;;2.20;2.10;;;2.00;99.90;;;;;;5055988;28;20250;-65
2022/03/05 07:31:34;;;;;;;2.50;2.40;;;2.10;99.90;;;;;;5057706;28;20211;-65
2022/03/05 07:34:02;;;;;;;2.97;2.78;;;2.10;99.90;;;;;;5058572;28;20227;-64
2022/03/05 07:36:32;;;;;;;2.90;2.70;;;2.10;99.90;;;;;;5056428;28;20204;-63
2022/03/05 07:39:00;;;;;;;2.83;2.70;;;2.00;99.90;;;;;;5056299;28;20550;-64
2022/03/05 07:41:31;;;;;;;2.75;2.65;;;1.90;99.90;;;;;;5055748;28;20275;-64
2022/03/05 07:43:59;;;;;;;3.17;2.97;;;1.90;99.90;;;;;;5054538;28;20235;-65
2022/03/05 07:46:33;;;;;;;3.28;3.00;;;2.00;99.90;;;;;;5054904;28;20471;-64
2022/03/05 07:49:01;;;;;;;3.15;2.95;;;2.00;99.90;;;;;;5054856;28;20211;-63
2022/03/05 07:51:31;;;;;;;2.70;2.50;;;2.00;99.90;;;;;;5054996;28;20210;-64
2022/03/05 07:54:00;;;;;;;3.10;2.90;;;2.10;99.90;;;;;;5054297;28;20219;-63
2022/03/05 07:56:30;;;;;;;3.67;3.15;;;2.20;99.90;;;;;;5052766;28;20211;-63
2022/03/05 07:59:00;;;;;;;3.58;3.28;;;2.20;99.90;;;;;;5053037;28;20650;-64
2022/03/05 08:01:43;;;;;;;3.63;3.42;;;2.30;99.90;;;;;;5053361;28;20223;-63
2022/03/05 08:04:11;;;;;;;4.30;4.00;;;2.20;99.90;;;;;;5053367;28;20239;-65
2022/03/05 08:06:41;;;;;;;3.63;3.42;;;2.30;99.90;;;;;;5052071;28;20224;-63
2022/03/05 08:09:09;;;;;;;3.60;3.40;;;2.40;99.90;;;;;;5052645;28;20208;-63
2022/03/05 08:11:37;;;;;;;3.63;3.42;;;2.40;99.90;;;;;;5053015;28;20240;-65
2022/03/05 08:14:05;;;;;;;3.40;3.20;;;2.50;99.90;;;;;;5052872;28;20208;-62
2022/03/05 08:16:39;;;;;;;3.70;3.50;;;2.60;99.90;;;;;;5052535;28;20737;-62
2022/03/05 08:19:06;;;;;;;3.00;2.85;;;2.70;99.90;;;;;;5053598;28;20269;-64
2022/03/05 08:21:37;;;;;;;3.00;2.90;;;2.70;99.90;;;;;;5056263;28;20200;-63
2022/03/05 08:24:09;;;;;;;3.60;3.35;;;2.80;99.90;;;;;;5054904;28;20288;-63
2022/03/05 08:26:39;;;;;;;3.40;3.20;;;2.80;99.90;;;;;;5052418;28;20297;-63
2022/03/05 08:29:16;;;;;;;3.10;2.90;;;2.90;99.90;;;;;;5053964;28;20244;-63
2022/03/05 08:31:59;;;;;;;3.13;2.92;;;3.00;99.90;;;;;;5053128;28;20239;-63
2022/03/05 08:34:28;;;;;;;3.40;3.20;;;3.10;99.90;;;;;;5052792;28;20314;-62
2022/03/05 08:36:59;;;;;;;3.38;3.17;;;3.30;99.90;;;;;;5053896;28;20231;-63
2022/03/05 08:39:31;;;;;;;3.10;2.90;;;3.40;99.90;;;;;;5056001;28;20212;-65
2022/03/05 08:41:59;;;;;;;3.30;3.10;;;3.60;99.90;;;;;;5053993;28;20598;-62
2022/03/05 08:44:26;;;;;;;3.90;3.60;;;3.70;99.90;;;;;;5053595;28;20857;-64
2022/03/05 08:46:56;;;;;;;3.50;3.30;;;3.70;99.90;;;;;;5054321;28;20249;-64
2022/03/05 08:49:25;;;;;;;2.97;2.78;;;3.80;99.90;;;;;;5053967;28;20218;-65
2022/03/05 08:51:54;;;;;;;3.40;3.13;;;3.90;99.90;;;;;;5054801;28;20673;-65
2022/03/05 08:54:26;;;;;;;3.00;2.80;;;4.00;99.90;;;;;;5052838;28;20261;-65
2022/03/05 08:56:54;;;;;;;3.42;3.22;;;4.20;99.90;;;;;;5052326;28;20705;-64
2022/03/05 08:59:26;;;;;;;3.25;3.05;;;4.40;99.90;;;;;;5054899;28;20648;-65
2022/03/05 09:01:57;;;;;;;3.53;3.33;;;4.50;99.90;;;;;;5062802;28;20224;-63
2022/03/05 09:04:34;;;;;;;3.50;3.30;;;4.60;99.90;;;;;;5063895;28;20269;-64
2022/03/05 09:07:02;;;;;;;3.65;3.45;;;4.80;99.90;;;;;;5070293;28;20227;-63
2022/03/05 09:09:34;;;;;;;3.47;3.28;;;4.90;99.90;;;;;;5060952;28;20235;-63
2022/03/05 09:12:01;;;;;;;3.30;3.10;;;4.90;99.90;;;;;;5061413;28;20204;-62
2022/03/05 09:14:33;;;;;;;3.33;3.13;;;5.00;99.90;;;;;;5040395;28;20266;-63
2022/03/05 09:17:04;;;;;;;3.60;3.40;;;5.20;99.90;;;;;;5051756;28;20612;-63
2022/03/05 09:19:32;;;;;;;3.47;3.28;;;5.30;99.90;;;;;;5054103;28;20337;-64
2022/03/05 09:21:59;;;;;;;3.63;3.43;;;5.50;99.90;;;;;;5048467;28;20773;-63
2022/03/05 09:24:29;;;;;;;3.38;3.17;;;5.70;99.90;;;;;;5051292;28;20221;-64
2022/03/05 09:27:04;;;;;;;3.67;3.47;;;5.90;99.90;;;;;;5051603;28;20237;-64
2022/03/05 09:29:32;;;;;;;3.20;3.00;;;6.00;99.90;;;;;;5044044;28;20223;-64
2022/03/05 09:32:04;;;;;;;3.20;3.00;;;6.10;99.90;;;;;;5057624;28;20239;-63
2022/03/05 09:34:32;;;;;;;3.15;2.95;;;6.20;99.90;;;;;;5049028;28;20760;-63
2022/03/05 09:36:59;;;;;;;3.08;2.88;;;6.20;99.90;;;;;;5039904;28;20736;-64
2022/03/05 09:39:26;;;;;;;2.97;2.78;;;6.40;99.90;;;;;;5056648;28;20272;-63
2022/03/05 09:41:55;;;;;;;2.60;2.50;;;6.30;99.90;;;;;;5053640;28;20227;-62
2022/03/05 09:44:26;;;;;;;2.70;2.60;;;6.20;99.90;;;;;;5044848;28;20588;-63
2022/03/05 09:46:54;;;;;;;2.83;2.72;;;6.20;99.90;;;;;;5047729;28;20303;-64
2022/03/05 09:49:31;;;;;;;2.63;2.53;;;6.10;99.90;;;;;;5050839;28;20204;-64
2022/03/05 09:52:02;;;;;;;2.80;2.60;;;6.10;99.90;;;;;;5056003;28;20211;-64
2022/03/05 09:54:32;;;;;;;2.83;2.70;;;6.60;99.90;;;;;;5057205;28;20204;-64
2022/03/05 09:57:02;;;;;;;2.80;2.60;;;6.80;99.90;;;;;;5056255;28;20231;-64
2022/03/05 09:59:31;;;;;;;3.15;2.95;;;7.00;99.90;;;;;;5056239;28;20540;-64
2022/03/05 10:02:02;;;;;;;2.50;2.40;;;7.40;99.90;;;;;;5056191;28;20214;-63
2022/03/05 10:04:31;;;;;;;2.73;2.63;;;7.40;99.90;;;;;;5056233;28;20253;-64
2022/03/05 10:07:09;;;;;;;3.35;3.15;;;7.60;99.90;;;;;;5056732;28;20281;-63
2022/03/05 10:09:41;;;;;;;4.95;4.60;;;7.60;99.90;;;;;;5056744;28;20388;-63
2022/03/05 10:12:28;;;;;;;3.70;3.50;;;7.70;99.90;;;;;;5057447;28;20577;-64
2022/03/05 10:15:26;;;;;;;2.70;2.50;;;7.90;99.90;;;;;;5057230;28;20717;-65
2022/03/05 10:18:00;;;;;;;1.90;1.80;;;8.20;99.90;;;;;;5012530;28;20228;-65
2022/03/05 10:20:39;;;;;;;6.00;5.60;;;8.10;99.90;;;;;;5049155;28;20229;-64
2022/03/05 10:23:10;;;;;;;3.30;3.10;;;8.30;99.90;;;;;;5042493;28;20236;-64
2022/03/05 10:25:43;;;;;;;3.15;2.95;;;8.60;99.90;;;;;;5053204;28;20216;-64
2022/03/05 10:28:12;;;;;;;1.90;1.80;;;8.80;99.90;;;;;;5053846;28;20247;-64
2022/03/05 10:30:41;;;;;;;2.90;2.80;;;9.00;99.90;;;;;;5056140;28;20232;-64
2022/03/05 10:33:10;;;;;;;2.73;2.63;;;9.10;99.90;;;;;;5056728;28;20216;-63
2022/03/05 10:35:40;;;;;;;6.90;6.50;;;9.20;99.90;;;;;;5055774;28;20674;-63
2022/03/05 10:38:07;;;;;;;4.63;4.35;;;9.10;99.90;;;;;;5053521;28;20286;-63
2022/03/05 10:40:38;;;;;;;1.80;1.70;;;9.00;99.90;;;;;;5044227;28;20211;-63
2022/03/05 10:43:07;;;;;;;2.50;1.77;;;9.20;98.90;;;;;;5038558;28;21389;-65
2022/03/05 10:45:50;;;;;;;1.83;1.52;;;9.40;96.90;;;;;;5039382;28;20715;-62
2022/03/05 10:48:26;;;;;;;1.65;1.55;;;9.40;96.60;;;;;;5037220;28;20671;-63
2022/03/05 10:50:59;;;;;;;3.50;3.30;;;9.50;96.70;;;;;;5044658;28;20203;-64
2022/03/05 10:53:53;;;;;;;1.87;1.77;;;9.70;95.90;;;;;;5040227;28;20208;-64
2022/03/05 10:56:31;;;;;;;1.75;1.70;;;9.70;97.40;;;;;;5010248;28;20641;-62
2022/03/05 10:59:09;;;;;;;2.50;2.40;;;9.90;97.50;;;;;;5053196;28;20673;-62
2022/03/05 11:01:39;;;;;;;1.90;1.80;;;10.00;97.30;;;;;;5053281;28;20204;-64
2022/03/05 11:04:08;;;;;;;1.77;1.67;;;10.10;96.60;;;;;;5054804;28;20235;-64
2022/03/05 11:06:41;;;;;;;1.60;1.50;;;10.10;94.10;;;;;;5046421;28;20217;-63
2022/03/05 11:09:10;;;;;;;1.42;1.42;;;10.20;94.80;;;;;;5057106;28;20611;-64
2022/03/05 11:11:39;;;;;;;1.45;1.45;;;10.20;93.70;;;;;;5044819;28;20204;-63
2022/03/05 11:14:07;;;;;;;1.40;1.35;;;10.50;94.30;;;;;;5051499;28;20437;-62
2022/03/05 11:16:34;;;;;;;1.50;1.50;;;10.50;93.00;;;;;;5051739;28;20228;-64
2022/03/05 11:19:02;;;;;;;1.30;1.30;;;10.50;92.70;;;;;;5055502;28;20209;-64
2022/03/05 11:21:30;;;;;;;1.38;1.38;;;10.60;93.10;;;;;;5038682;28;20220;-62
2022/03/05 11:23:59;;;;;;;1.70;1.60;;;10.60;93.10;;;;;;5042887;28;20406;-63
2022/03/05 11:26:28;;;;;;;1.60;1.50;;;10.50;92.20;;;;;;5043471;28;20208;-64
2022/03/05 11:28:55;;;;;;;3.17;1.80;;;10.60;92.00;;;;;;5037254;28;20204;-63
2022/03/05 11:31:24;;;;;;;1.90;1.80;;;10.50;90.60;;;;;;5042014;28;20262;-64
2022/03/05 11:33:52;;;;;;;1.80;1.70;;;10.50;91.00;;;;;;5038131;28;20283;-62
2022/03/05 11:36:31;;;;;;;1.40;1.40;;;10.60;91.40;;;;;;5045390;28;20311;-64
2022/03/05 11:39:21;;;;;;;2.45;2.35;;;10.70;91.70;;;;;;5036443;28;20242;-63
2022/03/05 11:41:52;;;;;;;1.70;1.60;;;10.70;91.80;;;;;;5035058;28;20268;-63
2022/03/05 11:44:21;;;;;;;1.63;1.60;;;10.80;92.90;;;;;;5038038;28;20220;-64
2022/03/05 11:46:49;;;;;;;2.38;2.28;;;10.90;91.40;;;;;;5037095;28;20224;-64
2022/03/05 11:49:17;;;;;;;1.90;1.80;;;10.80;91.10;;;;;;5035838;28;20237;-62
2022/03/05 11:51:54;;;;;;;2.72;2.63;;;10.70;90.70;;;;;;5035077;28;20219;-65
2022/03/05 11:54:23;;;;;;;1.90;1.80;;;10.80;91.70;;;;;;5034347;28;20256;-63
2022/03/05 11:57:03;;;;;;;1.95;1.85;;;10.80;91.00;;;;;;5043221;28;20232;-64
2022/03/05 11:59:32;;;;;;;1.90;1.80;;;11.00;91.90;;;;;;5045994;28;20206;-63
2022/03/05 12:01:59;;;;;;;1.70;1.60;;;11.00;91.10;;;;;;5045981;28;20208;-64
2022/03/05 12:04:28;;;;;;;1.83;1.73;;;11.10;90.90;;;;;;5036773;28;20205;-63
2022/03/05 12:07:00;;;;;;;1.60;1.60;;;10.90;90.50;;;;;;5033677;28;20782;-63
2022/03/05 12:09:40;;;;;;;1.80;1.70;;;10.70;88.50;;;;;;5033927;28;20566;-65
2022/03/05 12:12:09;;;;;;;1.90;1.80;;;10.70;90.10;;;;;;5035469;28;20204;-67
2022/03/05 12:15:11;;;;;;;1.90;1.80;;;10.50;90.20;;;;;;5045860;28;20200;-64
2022/03/05 12:17:40;;;;;;;1.83;1.73;;;10.70;90.50;;;;;;5045874;28;20228;-64
2022/03/05 12:20:09;;;;;;;1.85;1.75;;;10.90;91.10;;;;;;5044980;28;20204;-64
2022/03/05 12:22:36;;;;;;;1.50;1.50;;;11.00;91.20;;;;;;5042149;28;20722;-64
2022/03/05 12:25:06;;;;;;;1.70;1.60;;;10.90;89.30;;;;;;5047032;28;20243;-64
2022/03/05 12:27:36;;;;;;;1.80;1.70;;;10.90;90.40;;;;;;5047094;28;20693;-64
2022/03/05 12:30:04;;;;;;;1.50;1.50;;;10.90;90.50;;;;;;5045563;28;20238;-64
2022/03/05 12:32:32;;;;;;;1.83;1.73;;;10.90;90.60;;;;;;5039032;28;20208;-62
2022/03/05 12:35:07;;;;;;;1.67;1.57;;;10.90;90.30;;;;;;5048268;28;20211;-62
2022/03/05 12:37:34;;;;;;;1.80;1.70;;;10.90;90.80;;;;;;5047410;28;20223;-63
2022/03/05 12:40:02;;;;;;;2.40;2.30;;;11.00;90.40;;;;;;5047756;28;20298;-62
2022/03/05 12:42:42;;;;;;;1.90;1.80;;;10.90;90.50;;;;;;5036942;28;20258;-62
2022/03/05 12:45:15;;;;;;;2.00;1.90;;;10.90;90.70;;;;;;5040868;28;20733;-62
2022/03/05 12:47:42;;;;;;;1.80;1.70;;;10.90;90.40;;;;;;5039161;28;20727;-63
2022/03/05 12:50:19;;;;;;;2.00;1.90;;;10.90;90.90;;;;;;5049938;28;20200;-63
2022/03/05 12:53:04;;;;;;;1.98;1.88;;;11.00;90.70;;;;;;5060552;28;20197;-62
2022/03/05 12:55:34;;;;;;;2.00;1.90;;;11.10;90.40;;;;;;5059520;28;20208;-65
2022/03/05 12:58:14;;;;;;;2.00;1.90;;;10.90;90.80;;;;;;5058379;28;20243;-63
2022/03/05 13:00:43;;;;;;;2.15;2.05;;;10.80;90.50;;;;;;5057442;28;20203;-63
2022/03/05 13:03:12;;;;;;;1.90;1.80;;;10.90;91.10;;;;;;5056429;28;20261;-63
2022/03/05 13:05:40;;;;;;;2.08;1.98;;;11.10;90.50;;;;;;5043646;28;20651;-64
2022/03/05 13:08:07;;;;;;;2.10;2.00;;;11.20;91.20;;;;;;5032676;28;20264;-63